Time;durP1;ratioP1;P1;durP2;ratioP2;P2;SDS_P1;SDS_P2;PMS_P1;PMS_P2;Temp;Humidity;BMP_temperature;BMP_pressure;BME280_temperature;BME280_humidity;BME280_pressure;Samples;Min_cycle;Max_cycle;Signal;HPM_P1;HPM_P2
2023/10/14 00:01:31;;;;;;;7.90;6.33;;;18.90;99.90;;;;;;4984980;28;20049;-42
2023/10/14 00:03:59;;;;;;;10.90;6.35;;;18.90;99.90;;;;;;4979152;28;20407;-43
2023/10/14 00:06:27;;;;;;;14.07;6.43;;;19.00;99.90;;;;;;4984333;28;20050;-42
2023/10/14 00:08:57;;;;;;;9.68;6.15;;;19.10;99.90;;;;;;4960404;28;20054;-42
2023/10/14 00:11:33;;;;;;;9.23;6.40;;;19.00;99.90;;;;;;4983556;28;20061;-41
2023/10/14 00:14:02;;;;;;;9.95;6.90;;;19.00;99.90;;;;;;4976805;28;20059;-43
2023/10/14 00:16:35;;;;;;;10.88;6.72;;;19.10;99.90;;;;;;4980684;28;20485;-43
2023/10/14 00:19:09;;;;;;;10.27;6.63;;;19.10;99.90;;;;;;4978050;28;20059;-42
2023/10/14 00:21:37;;;;;;;9.35;6.80;;;19.10;99.90;;;;;;4987115;28;20034;-42
2023/10/14 00:24:06;;;;;;;11.02;6.88;;;19.10;99.90;;;;;;4982378;28;20105;-40
2023/10/14 00:26:34;;;;;;;10.38;6.65;;;19.10;99.90;;;;;;4977301;28;20043;-42
2023/10/14 00:31:48;;;;;;;9.75;6.55;;;19.20;99.90;;;;;;4978778;28;20062;-42
2023/10/14 00:34:17;;;;;;;12.23;6.50;;;19.10;99.90;;;;;;4962116;28;20634;-40
2023/10/14 00:36:45;;;;;;;9.18;6.50;;;19.20;99.90;;;;;;4980773;28;20053;-40
2023/10/14 00:39:14;;;;;;;8.95;6.50;;;19.20;99.90;;;;;;4977930;28;20475;-41
2023/10/14 00:41:52;;;;;;;13.07;6.22;;;19.30;99.90;;;;;;4962407;28;20463;-41
2023/10/14 00:44:24;;;;;;;10.48;6.65;;;19.30;99.90;;;;;;4978492;28;20510;-42
2023/10/14 00:46:52;;;;;;;;;;;19.20;99.90;;;;;;4983864;28;20050;-41
2023/10/14 00:49:31;;;;;;;9.38;6.05;;;19.20;99.90;;;;;;4980794;28;19953;-40
2023/10/14 00:52:06;;;;;;;8.38;6.50;;;19.20;99.90;;;;;;4962506;28;20141;-42
2023/10/14 00:59:50;;;;;;;10.73;6.63;;;19.30;99.90;;;;;;4985534;28;20050;-42
2023/10/14 01:02:31;;;;;;;10.20;6.50;;;19.30;99.90;;;;;;4971682;28;20050;-41
2023/10/14 01:05:17;;;;;;;10.88;6.75;;;19.30;99.90;;;;;;4989086;28;20078;-41
2023/10/14 01:07:45;;;;;;;9.77;6.45;;;19.20;99.90;;;;;;4989876;28;20058;-42
2023/10/14 01:10:13;;;;;;;10.18;7.20;;;19.20;99.90;;;;;;4979559;28;20051;-40
2023/10/14 01:12:44;;;;;;;11.48;6.65;;;19.20;99.90;;;;;;4983258;28;20550;-40
2023/10/14 01:15:21;;;;;;;10.95;6.35;;;19.10;99.90;;;;;;4986240;28;20055;-41
2023/10/14 01:17:53;;;;;;;8.43;6.57;;;19.10;99.90;;;;;;4983115;28;20074;-41
2023/10/14 01:23:00;;;;;;;12.13;6.82;;;19.10;99.90;;;;;;4963650;28;20046;-40
2023/10/14 01:25:32;;;;;;;11.27;6.70;;;19.10;99.90;;;;;;4965635;28;20781;-37
2023/10/14 01:28:06;;;;;;;11.75;6.00;;;19.10;99.90;;;;;;4983384;28;20599;-41
2023/10/14 01:30:37;;;;;;;8.07;6.38;;;19.10;99.90;;;;;;4972159;28;20402;-44
2023/10/14 01:33:15;;;;;;;9.10;6.05;;;19.10;99.90;;;;;;4978098;28;20105;-39
2023/10/14 01:35:45;;;;;;;9.82;6.97;;;19.10;99.90;;;;;;4979321;28;20404;-38
2023/10/14 01:38:13;;;;;;;9.75;6.90;;;19.10;99.90;;;;;;4963992;28;20516;-41
2023/10/14 01:40:48;;;;;;;10.25;6.15;;;19.00;99.90;;;;;;4978761;28;20074;-40
2023/10/14 01:43:16;;;;;;;9.05;6.85;;;19.00;99.90;;;;;;4980260;28;20071;-41
2023/10/14 01:45:59;;;;;;;10.25;6.50;;;19.10;99.90;;;;;;4981277;28;20058;-41
2023/10/14 01:48:33;;;;;;;10.60;6.43;;;19.00;99.90;;;;;;4980823;28;20090;-43
2023/10/14 01:51:03;;;;;;;10.13;6.53;;;19.10;99.90;;;;;;4980049;28;20519;-42
2023/10/14 01:53:32;;;;;;;7.97;6.03;;;19.10;99.90;;;;;;4977935;28;20565;-41
2023/10/14 01:56:01;;;;;;;9.55;6.45;;;19.10;99.90;;;;;;4983704;28;20080;-40
2023/10/14 01:58:32;;;;;;;11.25;6.22;;;19.10;99.90;;;;;;4960381;28;20039;-39
2023/10/14 02:03:46;;;;;;;12.18;6.28;;;19.20;99.90;;;;;;4975581;28;20507;-41
2023/10/14 02:06:16;;;;;;;8.02;5.68;;;19.20;99.90;;;;;;4955546;28;20503;-44
2023/10/14 02:08:47;;;;;;;8.82;6.13;;;19.20;99.90;;;;;;4981015;28;20058;-42
2023/10/14 02:11:16;;;;;;;12.77;6.07;;;19.20;99.90;;;;;;4985541;28;20126;-39
2023/10/14 02:13:43;;;;;;;12.73;6.40;;;19.10;99.90;;;;;;4986587;28;20534;-39
2023/10/14 02:16:10;;;;;;;8.98;6.03;;;19.20;99.90;;;;;;4983970;28;20641;-42
2023/10/14 02:18:38;;;;;;;9.60;6.25;;;19.20;99.90;;;;;;4959273;28;20121;-40
2023/10/14 02:21:16;;;;;;;10.70;6.75;;;19.10;99.90;;;;;;4957399;28;20050;-42
2023/10/14 02:23:44;;;;;;;7.80;5.90;;;19.10;99.90;;;;;;4984012;28;20104;-42
2023/10/14 02:26:26;;;;;;;11.18;6.47;;;19.10;99.90;;;;;;4956489;28;20423;-42
2023/10/14 02:28:54;;;;;;;8.27;6.25;;;19.20;99.90;;;;;;4959213;28;20058;-38
2023/10/14 02:31:30;;;;;;;11.57;6.13;;;19.10;99.90;;;;;;4966465;28;20054;-40
2023/10/14 02:34:08;;;;;;;8.23;6.22;;;19.30;99.90;;;;;;4979382;28;20055;-42
2023/10/14 02:36:41;;;;;;;8.32;6.15;;;19.30;99.90;;;;;;4976621;28;20113;-39
2023/10/14 02:39:14;;;;;;;8.63;6.05;;;19.30;99.90;;;;;;4977625;28;20039;-40
2023/10/14 02:44:33;;;;;;;8.63;6.13;;;19.40;99.90;;;;;;4991425;28;20046;-43
2023/10/14 02:47:05;;;;;;;10.32;6.15;;;19.40;99.90;;;;;;4977756;28;20046;-41
2023/10/14 02:49:37;;;;;;;8.43;6.80;;;19.30;99.90;;;;;;4953252;28;20042;-41
2023/10/14 02:52:10;;;;;;;17.42;6.82;;;19.30;99.90;;;;;;4952338;28;20058;-40
2023/10/14 02:54:42;;;;;;;7.40;6.18;;;19.30;99.90;;;;;;4957896;28;20044;-41
2023/10/14 02:57:14;;;;;;;11.07;6.70;;;19.40;99.90;;;;;;4978337;28;20422;-42
2023/10/14 03:02:16;;;;;;;11.85;6.18;;;19.40;99.90;;;;;;4975361;28;20115;-42
2023/10/14 03:07:44;;;;;;;10.25;6.50;;;19.40;99.90;;;;;;4982538;28;20051;-41
2023/10/14 03:12:49;;;;;;;9.30;6.80;;;19.40;99.90;;;;;;4977392;28;20113;-43
2023/10/14 03:15:19;;;;;;;10.05;6.40;;;19.40;99.90;;;;;;4983187;28;20153;-41
2023/10/14 03:18:03;;;;;;;8.93;6.63;;;19.40;99.90;;;;;;4986052;28;20046;-41
2023/10/14 03:20:37;;;;;;;11.23;6.38;;;19.50;99.90;;;;;;4979622;28;20046;-40
2023/10/14 03:23:19;;;;;;;10.98;6.60;;;19.50;99.90;;;;;;4978270;28;20110;-40
2023/10/14 03:25:48;;;;;;;;;;;19.50;99.90;;;;;;4958073;28;20077;-40
2023/10/14 03:28:19;;;;;;;13.98;7.22;;;19.50;99.90;;;;;;4981494;28;19980;-40
2023/10/14 03:30:55;;;;;;;8.60;6.18;;;19.50;99.90;;;;;;4980093;28;20054;-41
2023/10/14 03:33:32;;;;;;;9.65;6.28;;;19.50;99.90;;;;;;4986560;28;20050;-40
2023/10/14 03:36:03;;;;;;;11.27;6.50;;;19.50;99.90;;;;;;4973226;28;20452;-37
2023/10/14 03:41:16;;;;;;;14.85;8.10;;;19.50;99.90;;;;;;4980326;28;20134;-38
2023/10/14 03:43:48;;;;;;;8.85;7.03;;;19.50;99.90;;;;;;4976212;28;20070;-41
2023/10/14 03:46:23;;;;;;;9.38;7.57;;;19.50;99.90;;;;;;4984542;28;20520;-38
2023/10/14 03:48:54;;;;;;;10.55;7.13;;;19.50;99.90;;;;;;4985055;28;20054;-37
2023/10/14 03:51:26;;;;;;;11.60;7.18;;;19.60;99.90;;;;;;4980765;28;20050;-41
2023/10/14 03:53:57;;;;;;;10.90;7.05;;;19.60;99.90;;;;;;4981070;28;20153;-39
2023/10/14 03:56:27;;;;;;;13.43;7.70;;;19.60;99.90;;;;;;4986419;28;20049;-42
2023/10/14 03:59:01;;;;;;;12.98;7.85;;;19.70;99.90;;;;;;4985692;28;20047;-41
2023/10/14 04:01:43;;;;;;;12.20;7.43;;;19.60;99.90;;;;;;4989557;28;20038;-41
2023/10/14 04:04:17;;;;;;;15.20;8.15;;;19.70;99.90;;;;;;4980493;28;20038;-41
2023/10/14 04:07:13;;;;;;;8.88;7.18;;;19.70;99.90;;;;;;4986055;28;20055;-41
2023/10/14 04:09:50;;;;;;;12.02;7.60;;;19.70;99.90;;;;;;4980922;28;20129;-41
2023/10/14 04:12:38;;;;;;;12.73;8.20;;;19.70;99.90;;;;;;4986241;28;20072;-43
2023/10/14 04:15:24;;;;;;;14.07;8.68;;;19.80;99.90;;;;;;4981788;28;20058;-40
2023/10/14 04:17:55;;;;;;;10.40;7.93;;;19.90;99.90;;;;;;4965148;28;20529;-42
2023/10/14 04:20:23;;;;;;;12.95;8.13;;;19.90;99.90;;;;;;4985061;28;20045;-41
2023/10/14 04:22:53;;;;;;;12.32;9.00;;;19.90;99.90;;;;;;4983826;28;20474;-40
2023/10/14 04:25:27;;;;;;;10.82;8.48;;;19.90;99.90;;;;;;4984162;28;20134;-41
2023/10/14 04:35:32;;;;;;;13.63;8.63;;;20.00;99.90;;;;;;4990852;28;20538;-42
2023/10/14 04:38:15;;;;;;;15.35;8.70;;;20.10;99.90;;;;;;4994448;28;20047;-43
2023/10/14 04:40:53;;;;;;;13.10;9.10;;;20.10;99.90;;;;;;4994173;28;20113;-42
2023/10/14 04:45:55;;;;;;;14.45;9.23;;;20.10;99.90;;;;;;4981537;28;20086;-40
2023/10/14 04:48:28;;;;;;;15.38;7.97;;;20.10;99.90;;;;;;4982306;28;20093;-41
2023/10/14 04:51:00;;;;;;;17.42;8.38;;;20.10;99.90;;;;;;4984791;28;20055;-41
2023/10/14 04:53:27;;;;;;;12.90;9.52;;;20.10;99.90;;;;;;4974346;28;20101;-40
2023/10/14 04:55:55;;;;;;;12.68;8.80;;;20.00;99.90;;;;;;4976525;28;20569;-38
2023/10/14 04:58:31;;;;;;;12.48;8.45;;;20.10;99.90;;;;;;4978028;28;20051;-39
2023/10/14 05:01:03;;;;;;;11.07;8.82;;;20.10;99.90;;;;;;4988703;28;20054;-41
2023/10/14 05:03:34;;;;;;;15.15;9.15;;;20.00;99.90;;;;;;4984410;28;20037;-40
2023/10/14 05:08:44;;;;;;;14.30;8.50;;;20.10;99.90;;;;;;4979879;28;20359;-42
2023/10/14 05:11:19;;;;;;;12.45;9.10;;;20.10;99.90;;;;;;4982120;28;20115;-41
2023/10/14 05:13:53;;;;;;;15.77;9.68;;;20.20;99.90;;;;;;4985426;28;20054;-40
2023/10/14 05:16:21;;;;;;;15.07;9.35;;;20.20;99.90;;;;;;4979782;28;20125;-41
2023/10/14 05:18:59;;;;;;;14.75;8.95;;;20.20;99.90;;;;;;4990055;28;20454;-41
2023/10/14 05:21:44;;;;;;;15.70;9.30;;;20.20;99.90;;;;;;4978303;28;20068;-40
2023/10/14 05:24:12;;;;;;;14.20;9.60;;;20.20;99.90;;;;;;4990293;28;20599;-42
2023/10/14 05:26:47;;;;;;;15.68;9.13;;;20.20;99.90;;;;;;4993791;28;20054;-41
2023/10/14 05:29:18;;;;;;;14.27;9.63;;;20.30;99.90;;;;;;4993769;28;20074;-41
2023/10/14 05:31:47;;;;;;;11.68;8.73;;;20.30;99.90;;;;;;4992495;28;20539;-41
2023/10/14 05:34:25;;;;;;;14.60;9.15;;;20.30;99.90;;;;;;4993665;28;20074;-41
2023/10/14 05:36:55;;;;;;;15.50;8.68;;;20.30;99.90;;;;;;4990189;28;20046;-41
2023/10/14 05:39:24;;;;;;;13.27;9.30;;;20.30;99.90;;;;;;4988471;28;20047;-41
2023/10/14 05:41:58;;;;;;;11.77;8.52;;;20.30;99.90;;;;;;4983835;28;20080;-39
2023/10/14 05:44:29;;;;;;;17.08;9.00;;;20.20;99.90;;;;;;4977903;28;20051;-44
2023/10/14 05:46:57;;;;;;;23.52;8.63;;;19.70;99.90;;;;;;4982589;28;20146;-41
2023/10/14 05:49:24;;;;;;;13.38;9.20;;;18.40;99.90;;;;;;4981898;28;20439;-42
2023/10/14 05:51:53;;;;;;;9.98;7.35;;;17.80;99.90;;;;;;4983204;28;20065;-42
2023/10/14 05:54:22;;;;;;;13.80;7.28;;;17.40;99.90;;;;;;4959929;28;20057;-41
2023/10/14 05:56:52;;;;;;;11.57;6.65;;;17.10;99.90;;;;;;4980007;28;20483;-41
2023/10/14 05:59:20;;;;;;;9.60;6.05;;;16.90;99.90;;;;;;4980969;28;20498;-41
2023/10/14 06:01:48;;;;;;;10.07;5.80;;;16.90;99.90;;;;;;4977580;28;20051;-40
2023/10/14 06:04:17;;;;;;;8.55;6.10;;;16.80;99.90;;;;;;4980254;28;20447;-42
2023/10/14 06:06:44;;;;;;;8.00;5.38;;;16.90;99.90;;;;;;4979975;28;20058;-43
2023/10/14 06:09:12;;;;;;;9.68;5.72;;;16.90;99.90;;;;;;4979045;28;20397;-42
2023/10/14 06:11:39;;;;;;;11.85;5.45;;;16.90;99.90;;;;;;4961953;28;20042;-39
2023/10/14 06:14:06;;;;;;;11.32;5.72;;;16.90;99.90;;;;;;4976855;28;20097;-42
2023/10/14 06:16:34;;;;;;;10.35;5.10;;;16.90;99.90;;;;;;4980926;28;20076;-43
2023/10/14 06:19:04;;;;;;;15.52;5.35;;;17.00;99.90;;;;;;4976402;28;20043;-42
2023/10/14 06:21:33;;;;;;;9.85;4.88;;;17.10;99.90;;;;;;4958573;28;20073;-42
2023/10/14 06:24:00;;;;;;;10.68;5.00;;;17.10;99.90;;;;;;4975587;28;20079;-42
2023/10/14 06:26:28;;;;;;;13.77;4.93;;;17.20;99.90;;;;;;4983445;28;20042;-43
2023/10/14 06:28:58;;;;;;;9.18;4.68;;;17.30;99.90;;;;;;4976235;28;20054;-40
2023/10/14 06:31:26;;;;;;;10.25;4.38;;;17.30;99.90;;;;;;4982272;28;20708;-39
2023/10/14 06:33:54;;;;;;;10.80;4.43;;;17.40;99.90;;;;;;4978029;28;20054;-41
2023/10/14 06:36:24;;;;;;;9.90;4.07;;;17.50;99.90;;;;;;4960703;28;20047;-41
2023/10/14 06:38:51;;;;;;;6.95;3.50;;;17.60;99.90;;;;;;4971735;28;20405;-41
2023/10/14 06:41:19;;;;;;;8.48;4.10;;;17.70;99.90;;;;;;4980512;28;20051;-40
2023/10/14 06:43:55;;;;;;;9.13;3.75;;;17.80;99.90;;;;;;4976651;28;20114;-41
2023/10/14 06:46:25;;;;;;;7.82;3.88;;;17.90;99.90;;;;;;4981105;28;20055;-41
2023/10/14 06:48:55;;;;;;;9.23;3.80;;;18.00;99.90;;;;;;4981969;28;20046;-39
2023/10/14 06:51:23;;;;;;;8.63;3.40;;;17.90;99.90;;;;;;4976448;28;20109;-42
2023/10/14 06:53:51;;;;;;;6.10;3.65;;;18.00;99.90;;;;;;4976047;28;20555;-41
2023/10/14 06:56:20;;;;;;;10.75;4.47;;;18.00;99.90;;;;;;4977214;28;20050;-42
2023/10/14 06:58:48;;;;;;;9.00;3.85;;;18.00;99.90;;;;;;4975221;28;20043;-40
2023/10/14 07:01:16;;;;;;;8.23;3.45;;;18.10;99.90;;;;;;4956388;28;20125;-40
2023/10/14 07:03:46;;;;;;;6.75;3.78;;;18.10;99.90;;;;;;4977617;28;20042;-38
2023/10/14 07:06:13;;;;;;;9.20;3.35;;;18.10;99.90;;;;;;4968741;28;20057;-43
2023/10/14 07:08:40;;;;;;;9.57;3.40;;;18.10;99.90;;;;;;4977195;28;20092;-41
2023/10/14 07:11:08;;;;;;;8.93;3.63;;;18.10;99.90;;;;;;4975006;28;20043;-40
2023/10/14 07:13:38;;;;;;;6.80;3.28;;;18.10;99.90;;;;;;4979836;28;20133;-41
2023/10/14 07:16:06;;;;;;;7.28;3.20;;;18.10;99.90;;;;;;4974778;28;20097;-44
2023/10/14 07:18:38;;;;;;;9.40;3.53;;;18.10;99.90;;;;;;4984120;28;20533;-43
2023/10/14 07:21:12;;;;;;;10.85;3.45;;;18.10;99.90;;;;;;4980864;28;20657;-42
2023/10/14 07:23:40;;;;;;;5.38;3.13;;;18.10;99.90;;;;;;4972033;28;20043;-41
2023/10/14 07:26:11;;;;;;;5.65;3.10;;;18.10;99.90;;;;;;4978419;28;20051;-41
2023/10/14 07:28:43;;;;;;;7.28;3.15;;;18.10;99.90;;;;;;4980154;28;20076;-39
2023/10/14 07:31:12;;;;;;;9.02;3.10;;;18.10;99.90;;;;;;4978474;28;20158;-40
2023/10/14 07:33:40;;;;;;;6.75;3.10;;;18.20;99.90;;;;;;4978034;28;20054;-42
2023/10/14 07:36:11;;;;;;;7.93;3.75;;;18.20;99.90;;;;;;4976646;28;20141;-40
2023/10/14 07:38:42;;;;;;;7.85;3.35;;;18.20;99.90;;;;;;4978640;28;20199;-41
2023/10/14 07:41:12;;;;;;;7.07;3.38;;;18.30;99.90;;;;;;4977236;28;20134;-40
2023/10/14 07:43:39;;;;;;;7.22;3.15;;;18.40;99.90;;;;;;4976497;28;20050;-40
2023/10/14 07:46:08;;;;;;;7.68;3.47;;;18.40;99.90;;;;;;4977510;28;20468;-40
2023/10/14 07:48:37;;;;;;;4.25;3.00;;;18.40;99.90;;;;;;4981547;28;20046;-42
2023/10/14 07:51:06;;;;;;;6.65;2.90;;;18.50;99.90;;;;;;4952869;28;20075;-40
2023/10/14 07:53:48;;;;;;;5.57;3.00;;;18.40;99.90;;;;;;4977281;28;20055;-40
2023/10/14 07:56:15;;;;;;;7.72;3.05;;;18.40;99.90;;;;;;4978285;28;20053;-42
2023/10/14 07:58:43;;;;;;;5.60;3.10;;;18.50;99.90;;;;;;4980836;28;20184;-40
2023/10/14 08:01:16;;;;;;;7.43;3.35;;;18.40;99.90;;;;;;4970357;28;20047;-42
2023/10/14 08:03:43;;;;;;;5.65;3.08;;;18.40;99.90;;;;;;4974275;28;20589;-44
2023/10/14 08:06:11;;;;;;;5.03;3.30;;;18.40;99.90;;;;;;4970451;28;20047;-42
2023/10/14 08:08:50;;;;;;;4.80;3.05;;;18.50;99.90;;;;;;4985243;28;20050;-41
2023/10/14 08:11:18;;;;;;;4.95;3.00;;;18.50;99.90;;;;;;4985209;28;20082;-42
2023/10/14 08:13:45;;;;;;;7.15;2.95;;;18.50;99.90;;;;;;4988069;28;20034;-42
2023/10/14 08:16:14;;;;;;;5.82;3.40;;;18.50;99.90;;;;;;4982951;28;20071;-40
2023/10/14 08:18:44;;;;;;;5.30;3.20;;;18.50;99.90;;;;;;4989571;28;20045;-42
2023/10/14 08:21:12;;;;;;;8.95;3.15;;;18.60;99.90;;;;;;4962931;28;20078;-40
2023/10/14 08:23:39;;;;;;;7.88;3.47;;;18.60;99.90;;;;;;4981371;28;20065;-40
2023/10/14 08:26:13;;;;;;;5.43;3.15;;;18.70;99.90;;;;;;4958561;28;20050;-39
2023/10/14 08:28:42;;;;;;;5.85;3.03;;;18.70;99.90;;;;;;4979667;28;20089;-41
2023/10/14 08:31:11;;;;;;;5.82;2.72;;;18.70;99.90;;;;;;4982370;28;20043;-41
2023/10/14 08:33:39;;;;;;;3.85;2.70;;;18.70;99.90;;;;;;4985420;28;20438;-39
2023/10/14 08:36:11;;;;;;;5.43;3.00;;;18.80;99.90;;;;;;4978724;28;20519;-39
2023/10/14 08:38:38;;;;;;;6.57;2.95;;;18.80;99.90;;;;;;4985139;28;20125;-44
2023/10/14 08:41:06;;;;;;;4.68;2.60;;;18.80;99.90;;;;;;4984566;28;20142;-42
2023/10/14 08:43:38;;;;;;;8.88;3.03;;;18.70;99.90;;;;;;4984337;28;20046;-41
2023/10/14 08:46:06;;;;;;;4.13;2.78;;;18.80;99.90;;;;;;4980335;28;20133;-38
2023/10/14 08:48:38;;;;;;;7.32;3.35;;;18.80;99.90;;;;;;4961470;28;20078;-37
2023/10/14 08:51:08;;;;;;;8.10;3.15;;;18.90;99.90;;;;;;4983005;28;20561;-40
2023/10/14 08:53:40;;;;;;;6.78;2.90;;;19.00;99.90;;;;;;4982544;28;20134;-41
2023/10/14 08:56:08;;;;;;;4.38;2.72;;;19.00;99.90;;;;;;4977823;28;20035;-40
2023/10/14 08:58:38;;;;;;;6.55;3.17;;;18.90;99.90;;;;;;4985919;28;20076;-37
2023/10/14 09:01:11;;;;;;;4.57;2.60;;;18.90;99.90;;;;;;4978386;28;20059;-41
2023/10/14 09:03:38;;;;;;;5.78;2.55;;;19.00;99.90;;;;;;4958959;28;20061;-41
2023/10/14 09:06:06;;;;;;;3.95;2.60;;;19.00;99.90;;;;;;4975610;28;20134;-43
2023/10/14 09:08:34;;;;;;;6.72;2.95;;;19.10;99.90;;;;;;4985414;28;20466;-41
2023/10/14 09:11:03;;;;;;;6.53;2.88;;;19.10;99.90;;;;;;4979364;28;20047;-43
2023/10/14 09:13:33;;;;;;;4.07;2.30;;;19.00;99.90;;;;;;4975905;28;20034;-39
2023/10/14 09:16:02;;;;;;;4.32;2.15;;;18.40;99.90;;;;;;4980171;28;20039;-42
2023/10/14 09:18:32;;;;;;;4.45;2.20;;;17.90;99.90;;;;;;4986626;28;20497;-41
2023/10/14 09:21:00;;;;;;;2.38;2.00;;;17.40;99.90;;;;;;4979908;28;20396;-43
2023/10/14 09:23:34;;;;;;;2.42;2.08;;;17.10;99.90;;;;;;4983145;28;20049;-43
2023/10/14 09:26:04;;;;;;;3.40;2.10;;;16.80;99.90;;;;;;4977181;28;20463;-41
2023/10/14 09:28:35;;;;;;;2.47;1.90;;;16.60;99.90;;;;;;4972735;28;20057;-44
2023/10/14 09:31:07;;;;;;;4.00;1.80;;;16.20;99.90;;;;;;4982433;28;20055;-42
2023/10/14 09:33:41;;;;;;;1.95;1.58;;;16.10;99.90;;;;;;4978859;28;20050;-43
2023/10/14 09:36:18;;;;;;;2.63;1.70;;;15.90;99.90;;;;;;4988586;28;20101;-41
2023/10/14 09:38:50;;;;;;;3.15;1.52;;;15.90;99.90;;;;;;4985205;28;20061;-42
2023/10/14 09:41:18;;;;;;;2.75;1.52;;;15.90;99.90;;;;;;4966192;28;20066;-42
2023/10/14 09:43:48;;;;;;;3.00;1.65;;;15.90;99.90;;;;;;4964071;28;20050;-43
2023/10/14 09:46:17;;;;;;;2.95;1.70;;;16.00;99.90;;;;;;4980552;28;20049;-42
2023/10/14 09:48:46;;;;;;;3.00;1.50;;;16.10;99.90;;;;;;4983246;28;20046;-41
2023/10/14 09:51:17;;;;;;;4.13;1.20;;;16.20;99.90;;;;;;4977509;28;20051;-40
2023/10/14 09:53:48;;;;;;;2.80;1.50;;;16.00;99.90;;;;;;4982044;28;20042;-42
2023/10/14 09:56:17;;;;;;;1.75;1.35;;;16.10;99.90;;;;;;4977142;28;20054;-43
2023/10/14 09:58:52;;;;;;;3.75;1.45;;;16.00;99.90;;;;;;4980278;28;20049;-43
2023/10/14 10:01:20;;;;;;;3.00;1.60;;;16.00;99.90;;;;;;4984058;28;20527;-42
2023/10/14 10:04:08;;;;;;;2.28;1.50;;;15.90;99.90;;;;;;4986622;28;20043;-42
2023/10/14 10:06:49;;;;;;;3.63;2.15;;;15.90;99.90;;;;;;4983998;28;20069;-43
2023/10/14 10:09:47;;;;;;;3.58;1.70;;;15.90;99.90;;;;;;4978174;28;20106;-43
2023/10/14 10:12:20;;;;;;;2.60;1.30;;;15.90;99.90;;;;;;4976688;28;20051;-43
2023/10/14 10:14:56;;;;;;;2.55;1.48;;;16.00;99.90;;;;;;4976850;28;20080;-41
2023/10/14 10:17:24;;;;;;;4.32;1.70;;;16.00;99.90;;;;;;4978636;28;20038;-41
2023/10/14 10:19:57;;;;;;;2.63;1.50;;;15.90;99.90;;;;;;4984342;28;20042;-43
2023/10/14 10:22:39;;;;;;;2.05;1.20;;;15.90;99.90;;;;;;4980683;28;20051;-42
2023/10/14 10:25:09;;;;;;;1.90;1.30;;;15.90;99.90;;;;;;4980862;28;20050;-44
2023/10/14 10:27:37;;;;;;;2.92;1.60;;;15.80;99.90;;;;;;4986429;28;20050;-42
2023/10/14 10:30:07;;;;;;;2.00;1.40;;;15.80;99.90;;;;;;4983221;28;20051;-43
2023/10/14 10:32:34;;;;;;;2.65;1.40;;;15.70;99.90;;;;;;4978450;28;20566;-42
2023/10/14 10:35:13;;;;;;;4.10;1.50;;;15.70;99.90;;;;;;4975262;28;20122;-44
2023/10/14 10:37:42;;;;;;;2.38;1.60;;;15.80;99.90;;;;;;4975659;28;20052;-40
2023/10/14 10:40:10;;;;;;;3.13;1.40;;;15.60;99.90;;;;;;4979918;28;20153;-41
2023/10/14 10:42:45;;;;;;;5.35;1.73;;;15.60;99.90;;;;;;4981701;28;20049;-39
2023/10/14 10:45:20;;;;;;;2.22;1.48;;;15.50;99.90;;;;;;4982453;28;20085;-38
2023/10/14 10:47:56;;;;;;;3.30;1.50;;;15.40;99.90;;;;;;4982121;28;20629;-42
2023/10/14 10:50:34;;;;;;;2.17;1.50;;;15.50;99.90;;;;;;4982987;28;20042;-40
2023/10/14 10:53:08;;;;;;;2.10;1.27;;;15.80;99.90;;;;;;4981751;28;20138;-42
2023/10/14 10:55:43;;;;;;;3.25;1.75;;;16.00;99.90;;;;;;4976511;28;20090;-44
2023/10/14 10:58:11;;;;;;;2.70;1.30;;;16.10;99.90;;;;;;4983312;28;20058;-41
2023/10/14 11:00:45;;;;;;;5.05;1.88;;;16.10;99.90;;;;;;4985012;28;20054;-41
2023/10/14 11:03:14;;;;;;;2.95;1.40;;;16.10;99.90;;;;;;4989217;28;20049;-41
2023/10/14 11:05:43;;;;;;;3.10;1.55;;;16.10;99.90;;;;;;4990958;28;20046;-41
2023/10/14 11:08:11;;;;;;;3.47;1.17;;;16.10;99.90;;;;;;4992427;28;20070;-40
2023/10/14 11:10:42;;;;;;;3.38;1.25;;;16.00;99.90;;;;;;4993501;28;20503;-41
2023/10/14 11:13:16;;;;;;;2.23;1.43;;;16.00;99.90;;;;;;4989628;28;20090;-39
2023/10/14 11:15:45;;;;;;;2.80;1.45;;;15.80;99.90;;;;;;4993331;28;20077;-40
2023/10/14 11:18:13;;;;;;;2.65;1.23;;;15.70;99.90;;;;;;4990718;28;20054;-38
2023/10/14 11:21:01;;;;;;;2.35;1.45;;;15.70;99.90;;;;;;4991760;28;20046;-39
2023/10/14 11:23:28;;;;;;;2.67;1.40;;;15.80;99.90;;;;;;4989041;28;20050;-39
2023/10/14 11:26:04;;;;;;;1.85;1.30;;;15.70;99.90;;;;;;4993608;28;20042;-40
2023/10/14 11:28:31;;;;;;;2.45;1.35;;;15.60;99.90;;;;;;4978763;28;20051;-39
2023/10/14 11:30:58;;;;;;;1.80;1.20;;;15.50;99.90;;;;;;4978641;28;20079;-36
2023/10/14 11:33:26;;;;;;;2.92;1.30;;;15.50;99.90;;;;;;4980091;28;20061;-41
2023/10/14 11:35:53;;;;;;;1.80;1.40;;;15.40;99.90;;;;;;4960358;28;20120;-40
2023/10/14 11:38:25;;;;;;;2.38;1.33;;;15.30;99.90;;;;;;4983153;28;20047;-39
2023/10/14 11:40:53;;;;;;;2.80;1.10;;;15.40;99.90;;;;;;4982327;28;20042;-39
2023/10/14 11:43:21;;;;;;;1.55;1.10;;;15.30;99.90;;;;;;4977297;28;20529;-40
2023/10/14 11:45:48;;;;;;;2.15;1.30;;;15.40;99.90;;;;;;4962991;28;20137;-40
2023/10/14 11:48:27;;;;;;;2.50;1.25;;;15.40;99.90;;;;;;4985538;28;20488;-39
2023/10/14 11:51:02;;;;;;;2.15;1.20;;;15.60;99.90;;;;;;4979009;28;20190;-40
2023/10/14 11:53:32;;;;;;;1.48;1.15;;;15.90;99.90;;;;;;4985776;28;20060;-47
2023/10/14 11:56:01;;;;;;;1.35;1.00;;;16.10;99.90;;;;;;4979430;28;20065;-38
2023/10/14 11:58:33;;;;;;;2.25;1.30;;;16.30;99.90;;;;;;4991561;28;20047;-39
2023/10/14 12:01:00;;;;;;;1.88;1.10;;;16.60;99.90;;;;;;4984891;28;20047;-40
2023/10/14 12:03:28;;;;;;;2.70;1.30;;;16.80;99.90;;;;;;4982954;28;20519;-38
2023/10/14 12:05:59;;;;;;;2.35;1.20;;;16.60;99.90;;;;;;4982079;28;20140;-40
2023/10/14 12:08:29;;;;;;;2.25;1.52;;;17.00;99.90;;;;;;4975321;28;20058;-40
2023/10/14 12:11:03;;;;;;;2.22;1.27;;;17.30;99.90;;;;;;4980553;28;20061;-40
2023/10/14 12:13:31;;;;;;;1.70;1.20;;;17.20;99.90;;;;;;4985500;28;20042;-38
2023/10/14 12:16:15;;;;;;;3.53;1.40;;;17.10;99.90;;;;;;4989181;28;20168;-38
2023/10/14 12:18:45;;;;;;;1.65;1.30;;;17.10;99.90;;;;;;4984500;28;20133;-38
2023/10/14 12:21:14;;;;;;;1.88;1.23;;;17.00;99.90;;;;;;4984379;28;20427;-39
2023/10/14 12:23:41;;;;;;;3.05;1.48;;;17.00;99.90;;;;;;4982843;28;20156;-39
2023/10/14 12:26:13;;;;;;;2.55;1.58;;;16.60;99.90;;;;;;4989974;28;20043;-41
2023/10/14 12:28:44;;;;;;;2.38;1.58;;;16.40;99.90;;;;;;4995110;28;20102;-42
2023/10/14 12:31:12;;;;;;;2.58;1.67;;;16.30;99.90;;;;;;4992089;28;20114;-39
2023/10/14 12:33:41;;;;;;;2.83;1.75;;;16.20;99.90;;;;;;4994771;28;20042;-39
2023/10/14 12:36:10;;;;;;;2.60;1.65;;;16.10;99.90;;;;;;4991504;28;20118;-40
2023/10/14 12:38:42;;;;;;;4.80;2.00;;;16.00;99.90;;;;;;4993332;28;20038;-39
2023/10/14 12:41:21;;;;;;;2.42;1.70;;;16.10;99.90;;;;;;4993421;28;20042;-40
2023/10/14 12:43:51;;;;;;;5.53;1.70;;;16.00;99.90;;;;;;4992980;28;20419;-41
2023/10/14 12:48:48;;;;;;;3.42;2.00;;;15.80;99.90;;;;;;4993511;28;20048;-40
2023/10/14 12:51:30;;;;;;;4.00;1.90;;;15.90;99.90;;;;;;4993191;28;20107;-40
2023/10/14 12:53:57;;;;;;;3.53;1.98;;;15.90;99.90;;;;;;4993640;28;20050;-40
2023/10/14 12:56:30;;;;;;;3.20;1.80;;;15.70;99.90;;;;;;4994069;28;20066;-41
2023/10/14 12:58:57;;;;;;;2.83;1.88;;;15.70;99.90;;;;;;4993495;28;20046;-40
2023/10/14 13:01:25;;;;;;;2.88;1.88;;;15.50;99.90;;;;;;4987604;28;20071;-42
2023/10/14 13:03:53;;;;;;;4.38;2.13;;;15.50;99.90;;;;;;4992074;28;20050;-41
2023/10/14 13:06:26;;;;;;;3.35;2.00;;;15.30;99.90;;;;;;4991788;28;20101;-40
2023/10/14 13:09:01;;;;;;;5.20;2.20;;;15.30;99.90;;;;;;4986662;28;20105;-41
2023/10/14 13:11:29;;;;;;;3.03;1.60;;;15.30;99.90;;;;;;4988418;28;20590;-40
2023/10/14 13:13:58;;;;;;;3.17;1.92;;;15.20;99.90;;;;;;4977846;28;20055;-40
2023/10/14 13:16:26;;;;;;;4.60;2.10;;;15.10;99.90;;;;;;4987816;28;20158;-38
2023/10/14 13:18:56;;;;;;;4.10;2.10;;;15.10;99.90;;;;;;4992035;28;20047;-39
2023/10/14 13:21:30;;;;;;;3.40;1.95;;;14.90;99.90;;;;;;4986354;28;20067;-39
2023/10/14 13:24:11;;;;;;;3.78;2.00;;;15.00;99.90;;;;;;4983828;28;20042;-41
2023/10/14 13:26:39;;;;;;;3.93;2.27;;;15.00;99.90;;;;;;4974282;28;20043;-40
2023/10/14 13:29:09;;;;;;;3.30;1.90;;;15.00;99.90;;;;;;4984445;28;20469;-38
2023/10/14 13:31:39;;;;;;;3.55;2.10;;;15.10;99.90;;;;;;4983096;28;20054;-40
2023/10/14 13:34:08;;;;;;;4.20;2.00;;;15.10;99.90;;;;;;4964996;28;20412;-38
2023/10/14 13:36:36;;;;;;;2.88;2.03;;;15.20;99.90;;;;;;4982121;28;20077;-37
2023/10/14 13:39:23;;;;;;;5.07;2.05;;;15.30;99.90;;;;;;4977049;28;20053;-40
2023/10/14 13:41:51;;;;;;;4.55;2.35;;;15.30;99.90;;;;;;4980970;28;20054;-41
2023/10/14 13:44:18;;;;;;;3.47;1.98;;;15.30;99.90;;;;;;4981996;28;20066;-41
2023/10/14 13:46:46;;;;;;;3.72;1.98;;;15.40;99.90;;;;;;4978890;28;20046;-38